Latest Weather Observations for Green Cape

IDN60801

Issued at 10:35 pm EST Wednesday 23 April 2014 (issued every 30 minutes, with the page automatically refreshed every 10 minutes)

About weather observations | Map of weather stations | Latest weather observations for NSW | Other Formats
Station Details ID: 069137 Name: GREEN CAPE AWS Lat: -37.26 Lon: 150.05 Height: 19.4 m
Data from the previous 72 hours. | See also: Recent months at Green Cape
Date/Time
EST
Temp
°C
App
Temp
°C
Dew
Point
Rel
Hum
%
Delta-T
°C
Wind Press
QNH
hPa
Press
MSL
hPa
Rain
since 9 am
mm
Dir
 
Spd
km/h
Gust
km/h
Spd
kts
Gust
kts
23/10:30pm 17.8 16.9 15.8 88 1.2 W 15 19 8 10 1012.3 - 0.2
23/10:00pm 17.6 16.7 15.9 90 1.0 W 15 19 8 10 1012.6 1012.6 0.2
23/09:30pm 17.6 16.8 16.1 91 0.9 W 15 19 8 10 1012.5 - 0.2
23/09:00pm 17.6 17.2 16.1 91 0.9 W 13 17 7 9 1012.4 1012.4 0.2
23/08:30pm 18.2 17.2 16.5 90 1.0 W 17 19 9 10 1012.6 - 0.2
23/08:00pm 18.8 18.7 16.9 89 1.1 WSW 13 15 7 8 1012.5 1012.5 0.2
23/07:30pm 19.0 17.7 16.8 87 1.3 SSW 19 22 10 12 1012.6 - 0.2
23/07:00pm 18.9 17.6 16.9 88 1.2 SSW 19 22 10 12 1012.5 1012.5 0.2
23/06:30pm 19.0 18.9 17.0 88 1.2 SSW 13 17 7 9 1012.3 - 0.2
23/06:00pm 19.2 18.4 17.2 88 1.2 S 17 20 9 11 1012.1 1012.1 0.2
23/05:30pm 19.4 18.6 17.2 87 1.3 S 17 19 9 10 1012.0 - 0.2
23/05:00pm 19.4 19.3 17.0 86 1.5 S 13 15 7 8 1012.0 1012.0 0.2
23/04:30pm 19.5 18.9 16.7 84 1.7 S 15 17 8 9 1012.0 - 0.2
23/04:00pm 20.1 19.9 16.7 81 2.1 S 13 17 7 9 1012.1 1012.1 0.2
23/03:30pm 21.5 21.9 17.3 77 2.6 S 11 15 6 8 1012.2 - 0.2
23/03:00pm 21.9 22.0 17.5 76 2.7 SSE 13 15 7 8 1012.3 1012.3 0.2
23/02:30pm 21.7 22.4 17.1 75 2.8 ESE 9 11 5 6 1012.3 - 0.2
23/02:00pm 21.6 22.7 17.0 75 2.8 ESE 7 11 4 6 1012.5 1012.5 0.2
23/01:30pm 21.4 22.6 16.8 75 2.8 E 6 7 3 4 1012.7 - 0.2
23/01:00pm 21.9 23.8 16.6 72 3.2 NNE 2 6 1 3 1013.5 1013.5 0.0
23/12:30pm 21.2 23.4 16.4 74 2.9 CALM 0 4 0 2 1013.9 - 0.0
23/12:00pm 20.2 21.4 16.0 77 2.5 NNE 4 4 2 2 1014.5 1014.5 0.0
23/11:30am 18.6 20.5 15.8 84 1.7 CALM 0 2 0 1 1015.2 - 0.0
23/11:00am 18.1 19.9 15.5 85 1.5 CALM 0 0 0 0 1015.6 1015.6 0.0
23/10:30am 17.4 17.7 15.0 86 1.4 W 7 9 4 5 1015.9 - 0.0
23/10:00am 17.1 17.9 14.7 86 1.4 W 4 6 2 3 1016.0 1016.0 0.0
23/09:30am 16.9 17.1 14.7 87 1.3 W 7 13 4 7 1016.4 - 0.0
23/09:00am 16.6 16.0 14.6 88 1.1 W 11 17 6 9 1016.7 1016.7 0.8
23/08:30am 16.3 15.6 14.3 88 1.1 W 11 13 6 7 1016.9 - 0.8
23/08:00am 16.0 15.6 14.0 88 1.1 W 9 9 5 5 1017.0 1017.0 0.8
23/07:30am 15.5 14.3 13.9 90 0.9 W 13 17 7 9 1017.0 - 0.8
23/07:00am 15.5 13.5 14.0 91 0.8 W 17 20 9 11 1016.6 1016.6 0.8
23/06:30am 15.3 14.0 13.8 91 0.8 W 13 17 7 9 1016.3 - 0.8
23/06:00am 15.3 13.3 13.8 91 0.8 W 17 19 9 10 1016.4 1016.4 0.8
23/05:30am 15.5 13.2 14.0 91 0.8 W 19 24 10 13 1016.6 - 0.8
23/05:00am 16.0 15.0 14.5 91 0.9 WSW 13 17 7 9 1016.5 1016.5 0.8
23/04:30am 16.0 14.6 14.4 90 0.9 W 15 19 8 10 1016.3 - 0.6
23/04:00am 16.4 14.2 14.4 88 1.1 W 19 20 10 11 1016.2 1016.2 0.6
23/03:30am 16.6 15.2 14.4 87 1.3 SW 15 22 8 12 1016.2 - 0.6
23/03:00am 16.2 14.6 14.0 87 1.2 SW 15 19 8 10 1016.2 1016.2 0.6
23/02:30am 16.4 14.0 13.9 85 1.4 W 19 22 10 12 1016.9 - 0.0
23/02:00am 16.8 13.9 13.9 83 1.6 WSW 22 26 12 14 1016.7 1016.7 0.0
23/01:30am 17.0 14.4 13.9 82 1.8 WSW 20 24 11 13 1016.8 - 0.0
23/01:00am 17.2 14.2 13.7 80 2.0 WSW 22 26 12 14 1016.8 1016.8 0.0
23/12:30am 17.8 14.6 14.3 80 2.0 SSW 24 28 13 15 1016.7 - 0.0
23/12:00am 17.0 15.2 13.3 79 2.1 WSW 15 19 8 10 1016.7 1016.7 0.0
 
Date/Time
EST
Temp
°C
App
Temp
°C
Dew
Point
Rel
Hum
%
Delta-T
°C
Wind Press
QNH
hPa
Press
MSL
hPa
Rain
since 9 am
mm
Dir
 
Spd
km/h
Gust
km/h
Spd
kts
Gust
kts
22/11:30pm 16.9 14.3 13.2 79 2.1 W 19 22 10 12 1016.7 - 0.0
22/11:00pm 17.4 16.1 13.7 79 2.1 W 13 17 7 9 1016.7 1016.7 0.0
22/10:30pm 17.2 16.0 14.1 82 1.8 W 13 15 7 8 1016.8 - 0.0
22/10:00pm 17.0 15.1 14.1 83 1.7 W 17 20 9 11 1016.6 1016.6 0.0
22/09:30pm 17.7 17.8 13.8 78 2.2 WSW 6 11 3 6 1016.2 - 0.0
22/09:00pm 17.5 17.3 13.6 78 2.2 W 7 9 4 5 1016.1 1016.1 0.0
22/08:30pm 18.0 17.8 12.9 72 2.9 W 6 7 3 4 1015.8 - 0.0
22/08:00pm 18.1 17.2 10.5 61 4.1 NW 6 7 3 4 1015.6 1015.6 0.0
22/07:30pm 19.0 18.4 12.3 65 3.7 NW 7 9 4 5 1015.6 - 0.0
22/07:00pm 18.9 18.3 12.4 66 3.6 N 7 7 4 4 1015.3 1015.3 0.0
22/06:30pm 18.9 18.4 12.6 67 3.5 N 7 7 4 4 1015.1 - 0.0
22/06:00pm 18.8 19.3 12.8 68 3.4 SSE 2 4 1 2 1014.7 1014.7 0.0
22/05:30pm 19.0 19.8 13.8 72 3.0 SSE 2 2 1 1 1014.3 - 0.0
22/05:00pm 19.3 19.3 13.7 70 3.2 SSE 6 9 3 5 1014.3 1014.3 0.0
22/04:30pm 19.5 18.6 13.7 69 3.3 SSE 11 13 6 7 1014.1 - 0.0
22/04:00pm 20.3 18.2 13.7 66 3.8 S 17 20 9 11 1014.2 1014.2 0.0
22/03:30pm 20.1 17.4 13.6 66 3.7 S 20 24 11 13 1014.1 - 0.0
22/03:00pm 20.5 18.1 14.4 68 3.6 S 20 24 11 13 1014.3 1014.3 0.0
22/02:30pm 20.6 17.7 14.0 66 3.8 S 22 26 12 14 1014.1 - 0.0
22/02:00pm 20.6 16.9 14.0 66 3.8 S 26 30 14 16 1014.1 1014.1 0.0
22/01:30pm 21.0 18.2 14.2 65 4.0 S 22 28 12 15 1014.2 - 0.0
22/01:00pm 20.5 16.9 13.2 63 4.2 S 24 28 13 15 1014.2 1014.2 0.0
22/12:30pm 20.3 16.1 12.3 60 4.5 S 26 30 14 16 1014.4 - 0.0
22/12:00pm 20.6 17.1 13.3 63 4.2 S 24 32 13 17 1014.7 1014.7 0.0
22/11:30am 19.8 16.1 12.6 63 4.0 SSW 24 41 13 22 1014.9 - 0.0
22/11:24am 19.6 15.4 13.5 68 3.5 SSW 28 37 15 20 1014.8 - 0.0
22/11:00am 20.5 20.0 13.9 66 3.8 N 9 11 5 6 1014.4 1014.4 0.0
22/10:30am 19.6 18.0 14.0 70 3.2 N 15 19 8 10 1014.6 - 0.0
22/10:00am 19.5 16.3 13.2 67 3.6 N 22 26 12 14 1014.6 1014.6 0.0
22/09:30am 19.1 17.1 12.8 67 3.5 N 15 19 8 10 1015.0 - 0.0
22/09:00am 18.4 15.4 12.6 69 3.2 N 20 22 11 12 1015.1 1015.1 0.0
22/08:30am 18.2 15.4 11.5 65 3.7 N 17 22 9 12 1015.3 - 0.0
22/08:00am 17.5 17.0 12.2 71 2.9 NNW 6 11 3 6 1015.3 1015.3 0.0
22/07:30am 15.8 15.2 11.6 76 2.3 N 6 7 3 4 1015.0 - 0.0
22/07:00am 15.1 13.8 11.3 78 2.0 W 9 11 5 6 1014.9 1014.9 0.0
22/06:30am 16.1 14.8 11.3 73 2.6 N 9 13 5 7 1014.6 - 0.0
22/06:00am 16.1 14.0 12.3 78 2.1 N 15 17 8 9 1014.5 1014.5 0.0
22/05:30am 15.3 14.8 11.9 80 1.8 WNW 6 9 3 5 1014.9 - 0.0
22/05:00am 16.8 15.9 12.5 76 2.4 N 9 13 5 7 1014.8 1014.8 0.0
22/04:30am 15.9 15.2 12.1 78 2.1 NW 7 15 4 8 1015.0 - 0.0
22/04:00am 17.6 15.0 13.1 75 2.5 N 19 24 10 13 1014.8 1014.8 0.0
22/03:30am 17.2 15.1 12.5 74 2.6 NNW 15 19 8 10 1015.1 - 0.0
22/03:00am 17.4 15.5 12.9 75 2.5 N 15 22 8 12 1015.2 1015.2 0.0
22/02:30am 17.9 13.5 14.0 78 2.2 N 30 35 16 19 1015.1 - 0.0
22/02:00am 18.2 12.6 14.5 79 2.1 N 37 44 20 24 1015.1 1015.1 0.0
22/01:30am 18.2 12.5 14.3 78 2.2 N 37 44 20 24 1015.4 - 0.0
22/01:00am 17.8 12.8 13.9 78 2.2 N 33 39 18 21 1015.9 1015.9 0.0
22/12:30am 18.0 13.0 14.1 78 2.2 N 33 41 18 22 1016.0 - 0.0
22/12:00am 18.3 12.7 14.4 78 2.2 N 37 44 20 24 1016.2 1016.2 0.0
 
Date/Time
EST
Temp
°C
App
Temp
°C
Dew
Point
Rel
Hum
%
Delta-T
°C
Wind Press
QNH
hPa
Press
MSL
hPa
Rain
since 9 am
mm
Dir
 
Spd
km/h
Gust
km/h
Spd
kts
Gust
kts
21/11:30pm 18.2 13.5 14.3 78 2.2 N 32 39 17 21 1016.4 - 0.0
21/11:00pm 18.1 13.3 14.0 77 2.3 N 32 37 17 20 1016.8 1016.8 0.0
21/10:30pm 18.0 14.1 13.3 74 2.7 N 26 32 14 17 1017.2 - 0.0
21/10:00pm 18.2 14.7 13.5 74 2.7 N 24 33 13 18 1017.6 1017.6 0.0
21/09:30pm 18.3 14.5 13.6 74 2.7 N 26 32 14 17 1017.6 - 0.0
21/09:00pm 18.0 15.6 12.7 71 3.0 N 17 24 9 13 1018.0 1018.0 0.0
21/08:30pm 18.1 16.0 12.5 70 3.1 N 15 22 8 12 1018.3 - 0.0
21/08:00pm 18.2 15.7 12.4 69 3.2 N 17 24 9 13 1018.2 1018.2 0.0
21/07:30pm 18.4 16.3 12.4 68 3.3 NNW 15 20 8 11 1018.3 - 0.0
21/07:27pm 18.4 16.4 12.6 69 3.2 NNW 15 19 8 10 1018.3 - 0.0
21/07:00pm 19.2 13.2 13.2 68 3.4 N 37 44 20 24 1017.9 1017.9 0.0
21/06:30pm 19.1 13.4 13.1 68 3.4 N 35 43 19 23 1017.8 - 0.0
21/06:00pm 18.8 13.5 12.5 67 3.5 N 32 37 17 20 1017.7 1017.7 0.0
21/05:30pm 18.8 13.4 12.3 66 3.6 N 32 37 17 20 1017.4 - 0.0
21/05:00pm 18.8 14.0 11.6 63 3.9 N 28 35 15 19 1017.6 1017.6 0.0
21/04:30pm 18.9 14.7 11.2 61 4.2 NNE 24 30 13 16 1017.7 - 0.0
21/04:00pm 19.1 15.1 10.6 58 4.6 NNE 22 28 12 15 1017.7 1017.7 0.0
21/03:30pm 19.5 16.0 10.2 55 5.0 NNE 19 24 10 13 1018.2 - 0.0
21/03:00pm 19.9 16.3 10.0 53 5.3 NNE 19 24 10 13 1018.3 1018.3 0.0
21/02:30pm 20.9 17.6 9.5 48 6.1 NNE 17 20 9 11 1018.4 - 0.0
21/02:00pm 21.1 18.6 9.7 48 6.1 NNE 13 20 7 11 1018.5 1018.5 0.0
21/01:30pm 20.3 17.7 9.2 49 5.9 NE 13 19 7 10 1018.7 - 0.0
21/01:00pm 20.6 17.9 8.9 47 6.2 NE 13 17 7 9 1018.8 1018.8 0.0
21/12:30pm 21.2 20.0 9.4 47 6.3 NE 6 9 3 5 1019.5 - 0.0
21/12:00pm 20.3 19.6 8.6 47 6.1 E 2 6 1 3 1019.6 1019.6 0.0
21/11:30am 20.0 19.3 8.7 48 5.9 ESE 2 4 1 2 1020.0 - 0.0
21/11:00am 19.1 16.8 9.0 52 5.3 W 11 13 6 7 1020.5 1020.5 0.0
21/10:30am 18.0 15.2 8.6 54 4.9 W 13 15 7 8 1020.6 - 0.0
21/10:00am 16.9 13.5 7.8 55 4.6 WNW 15 19 8 10 1020.6 1020.6 0.0
21/09:30am 16.2 12.1 8.7 61 3.8 W 20 24 11 13 1020.9 - 0.0
21/09:00am 15.4 11.2 8.2 62 3.6 W 20 24 11 13 1021.0 1021.0 0.0
21/08:30am 14.8 9.9 6.9 59 3.9 W 22 26 12 14 1020.9 - 0.0
21/08:00am 14.2 8.9 6.6 60 3.7 W 24 26 13 14 1020.5 1020.5 0.0
21/07:30am 13.8 8.6 7.3 65 3.2 W 24 28 13 15 1020.4 - 0.0
21/07:00am 13.7 8.3 6.3 61 3.5 W 24 28 13 15 1020.0 1020.0 0.0
21/06:30am 13.4 7.5 6.0 61 3.5 W 26 30 14 16 1019.7 - 0.0
21/06:00am 13.5 7.7 6.4 62 3.4 W 26 28 14 15 1019.4 1019.4 0.0
21/05:30am 13.7 8.4 7.0 64 3.3 W 24 30 13 16 1019.2 - 0.0
21/05:00am 13.6 9.0 6.7 63 3.3 W 20 24 11 13 1019.0 1019.0 0.0
21/04:30am 13.5 8.3 7.1 65 3.1 W 24 26 13 14 1018.9 - 0.0
21/04:00am 13.4 8.5 7.0 65 3.1 W 22 24 12 13 1018.6 1018.6 0.0
21/03:30am 13.5 8.7 7.5 67 2.9 W 22 26 12 14 1018.6 - 0.0
21/03:00am 13.5 9.2 7.7 68 2.8 W 20 24 11 13 1018.5 1018.5 0.0
21/02:30am 13.4 9.0 7.6 68 2.8 W 20 24 11 13 1018.6 - 0.0
21/02:00am 13.7 10.1 8.5 71 2.6 W 17 20 9 11 1018.6 1018.6 0.0
21/01:30am 13.8 10.2 8.2 69 2.8 W 17 20 9 11 1018.7 - 0.0
21/01:00am 14.2 10.0 8.4 68 2.9 W 20 24 11 13 1018.7 1018.7 0.0
21/12:30am 14.4 10.3 8.8 69 2.8 W 20 22 11 12 1018.7 - 0.0
21/12:00am 14.7 10.8 8.6 67 3.1 W 19 20 10 11 1018.7 1018.7 0.0
 
Date/Time
EST
Temp
°C
App
Temp
°C
Dew
Point
Rel
Hum
%
Delta-T
°C
Wind Press
QNH
hPa
Press
MSL
hPa
Rain
since 9 am
mm
Dir
 
Spd
km/h
Gust
km/h
Spd
kts
Gust
kts
20/11:30pm 15.0 11.1 8.5 65 3.3 W 19 20 10 11 1018.8 - 0.0
20/11:00pm 15.3 10.9 7.3 59 3.9 W 20 22 11 12 1018.9 1018.9 0.0

Other Formats:

Comma delimited format used in spreadsheet applications
http://www.bom.gov.au/fwo/IDN60801/IDN60801.94934.axf

JavaScript Object Notation format (JSON) in row-major order
http://www.bom.gov.au/fwo/IDN60801/IDN60801.94934.json